CW1120 Goteborg SE current weather conditions

sailwx.info

Wind from 098 at 5 knots gusting 12

Air temperature 2.8° C
Dewpoint 2.1° C

Last reported at 2019-Dec-15 13:02 UTC.
Time now 2019-Dec-15 13:18 UTC

Location: N 58°01' E 011°35'.
View on Google Maps.

See reports from other nearby stations

  
Tides and Currents Weather Stations Pressure Air Temp Water Temp Dewpoint Dewpoint Depression Visibility Wind Speed Wind Dir Waves Ship Positions
date/time (UTC)wind fromknots sea level pressurealtimeterstation pressurevisibilityair tempwater tempwave heightnotes
2019-Dec-15 13:02 098 5 gusting 12 2.8
2019-Dec-15 12:52 086 6 gusting 9 2.8
2019-Dec-15 12:42 107 3 gusting 6 2.8
2019-Dec-15 12:32 067 4 gusting 11 2.8
2019-Dec-15 12:22 136 5 gusting 15 2.8
2019-Dec-15 12:12 153 7 gusting 15 3.3
2019-Dec-15 12:02 203 6 gusting 19 3.9
2019-Dec-15 11:52 215 6 gusting 17 3.9
2019-Dec-15 11:42 192 6 gusting 15 4.4
2019-Dec-15 11:22 137 0 gusting 4 4.4
2019-Dec-15 11:12 204 1 gusting 7 4.4
2019-Dec-15 11:02 242 3 gusting 8 4.4
2019-Dec-15 10:42 213 8 gusting 22 5.0
2019-Dec-15 10:32 179 9 gusting 19 6.1
2019-Dec-15 10:22 190 6 gusting 12 6.1
2019-Dec-15 10:12 176 5 gusting 13 6.1
2019-Dec-15 10:02 161 6 gusting 13 6.1
2019-Dec-15 09:41 216 5 gusting 12 6.1
2019-Dec-15 09:32 210 5 gusting 10 5.6
2019-Dec-15 09:22 200 6 gusting 13 5.6
2019-Dec-15 09:11 177 6 gusting 13 5.6
2019-Dec-15 09:02 201 6 gusting 15 5.6
2019-Dec-15 08:52 240 6 gusting 13 5.6
2019-Dec-15 08:42 183 6 gusting 12 5.6
2019-Dec-15 08:32 230 6 gusting 11 5.0
2019-Dec-15 08:22 224 6 gusting 12 5.0
2019-Dec-15 08:11 213 7 gusting 13 5.0
2019-Dec-15 08:01 229 6 gusting 13 5.0
2019-Dec-15 07:52 221 9 gusting 15 5.0
2019-Dec-15 07:42 217 11 gusting 16 5.0
2019-Dec-15 07:32 236 10 gusting 15 5.0
2019-Dec-15 07:21 220 11 gusting 17 5.0
2019-Dec-15 07:12 229 12 gusting 19 5.6
2019-Dec-15 07:02 223 12 gusting 19 5.6
2019-Dec-15 06:52 225 13 gusting 21 5.6
2019-Dec-15 06:41 202 13 gusting 17 5.6
2019-Dec-15 06:32 216 9 gusting 18 5.6
2019-Dec-15 06:22 200 10 gusting 15 5.6
2019-Dec-15 06:12 223 12 gusting 16 5.6
2019-Dec-15 06:02 239 13 gusting 19 5.6
2019-Dec-15 05:52 225 16 gusting 25 5.6
2019-Dec-15 05:42 232 14 gusting 21 5.6
2019-Dec-15 05:32 239 14 gusting 24 6.1
2019-Dec-15 05:22 205 14 gusting 25 5.6
2019-Dec-15 05:11 224 16 gusting 20 5.6
2019-Dec-15 05:01 201 15 gusting 19 5.6
2019-Dec-15 04:52 217 11 gusting 20 5.6
2019-Dec-15 04:42 221 14 gusting 21 5.6
2019-Dec-15 04:32 240 13 gusting 19 5.6
2019-Dec-15 04:22 223 13 gusting 20 5.6
2019-Dec-15 04:12 220 13 gusting 20 6.1
2019-Dec-15 04:02 220 11 gusting 18 6.1
2019-Dec-15 03:52 237 13 gusting 19 6.1
2019-Dec-15 03:41 229 12 gusting 17 6.1
2019-Dec-15 03:32 214 12 gusting 17 5.6
2019-Dec-15 03:22 210 10 gusting 14 5.6
2019-Dec-15 03:12 220 10 gusting 14 5.6
2019-Dec-15 03:02 215 11 gusting 14 5.6
2019-Dec-15 02:52 204 6 gusting 8 5.6
2019-Dec-15 02:42 217 6 gusting 9 5.6
2019-Dec-15 02:32 202 6 gusting 7 5.6
2019-Dec-15 02:22 229 5 gusting 7 5.6
2019-Dec-15 02:12 194 4 gusting 7 5.6
2019-Dec-15 02:02 223 3 gusting 7 5.6
2019-Dec-15 01:51 235 5 gusting 9 5.6
2019-Dec-15 01:42 205 4 gusting 6 5.6
2019-Dec-15 01:32 226 4 gusting 6 5.6
2019-Dec-15 01:22 219 3 gusting 6 5.0
2019-Dec-15 01:11 216 2 gusting 6 5.0
2019-Dec-15 01:02 181 1 gusting 4 4.4
2019-Dec-15 00:52 143 1 gusting 4 4.4
2019-Dec-15 00:42 153 1 gusting 4 4.4
2019-Dec-15 00:32 126 4.4
2019-Dec-15 00:21 127 4.4
2019-Dec-15 00:12 092 2 gusting 6 3.9
2019-Dec-15 00:02 120 2 gusting 6 3.9
2019-Dec-14 23:52 086 3 gusting 6 3.9
2019-Dec-14 23:42 100 2 gusting 6 3.9
2019-Dec-14 23:32 098 4 gusting 7 3.9
2019-Dec-14 23:22 076 3 gusting 6 3.9
2019-Dec-14 23:12 118 3 gusting 7 3.9
2019-Dec-14 23:02 056 3 gusting 6 3.9
2019-Dec-14 22:52 096 5 gusting 7 3.9
2019-Dec-14 22:42 115 3 gusting 6 3.9
2019-Dec-14 22:31 082 3 gusting 7 3.9
2019-Dec-14 22:22 083 6 gusting 11 3.3
2019-Dec-14 22:12 105 5 gusting 9 3.3
2019-Dec-14 22:02 088 2 gusting 8 3.3
2019-Dec-14 21:52 136 4 gusting 9 3.3
2019-Dec-14 21:42 082 4 gusting 8 3.3
2019-Dec-14 21:32 086 3 gusting 9 3.3
2019-Dec-14 21:01 085 4 gusting 8 3.3
2019-Dec-14 20:52 134 4 gusting 8 3.3
2019-Dec-14 20:42 096 4 gusting 7 3.3
2019-Dec-14 20:32 032 1 gusting 6 3.3
2019-Dec-14 20:22 082 1 gusting 8 3.3
2019-Dec-14 20:11 100 5 gusting 9 3.3
2019-Dec-14 20:02 088 1 gusting 8 3.3
2019-Dec-14 19:52 077 4 gusting 9 3.3
2019-Dec-14 19:42 099 2 gusting 6 3.3
2019-Dec-14 19:32 123 2 gusting 8 3.3
2019-Dec-14 19:22 121 2 gusting 6 3.3
2019-Dec-14 19:12 096 3 gusting 8 3.3
2019-Dec-14 19:01 088 2 gusting 9 3.3
2019-Dec-14 18:51 094 4 gusting 8 3.3
2019-Dec-14 18:42 115 4 gusting 8 3.3
2019-Dec-14 18:32 148 2 gusting 7 3.3
2019-Dec-14 18:22 088 4 gusting 7 3.3
2019-Dec-14 18:11 122 3 gusting 9 3.3
2019-Dec-14 18:02 132 2 gusting 6 3.3
2019-Dec-14 17:52 078 2 gusting 6 3.3
2019-Dec-14 17:42 112 3 gusting 8 3.3
2019-Dec-14 17:32 127 4 gusting 8 3.3
2019-Dec-14 17:22 063 2 gusting 7 3.3
2019-Dec-14 17:12 086 2 gusting 8 3.3
2019-Dec-14 17:02 100 3 gusting 6 3.3
2019-Dec-14 16:52 077 3 gusting 11 3.3
2019-Dec-14 16:41 087 2 gusting 8 3.3
2019-Dec-14 16:32 096 3 gusting 9 3.3
2019-Dec-14 16:22 103 4 gusting 7 3.3
2019-Dec-14 16:12 096 3 gusting 6 3.3
2019-Dec-14 16:02 144 2 gusting 7 3.3
2019-Dec-14 15:52 071 1 gusting 8 3.3
2019-Dec-14 15:32 086 2 gusting 6 3.3
2019-Dec-14 15:21 141 2 gusting 6 3.3
2019-Dec-14 15:12 104 2 gusting 6 3.3
2019-Dec-14 15:02 094 3 gusting 6 3.3
2019-Dec-14 14:52 094 2 gusting 6 3.3
2019-Dec-14 14:42 117 2 gusting 6 3.3
2019-Dec-14 14:31 091 2 gusting 6 3.3
2019-Dec-14 14:22 076 2 gusting 8 3.3
2019-Dec-14 14:12 064 3 gusting 9 3.3
2019-Dec-14 14:02 118 3 gusting 8 3.9
2019-Dec-14 13:52 096 4 gusting 12 3.3
2019-Dec-14 13:42 105 2 gusting 6 3.9
2019-Dec-14 13:32 098 4 gusting 6 3.9
2019-Dec-14 13:22 086 2 gusting 9 3.9
2019-Dec-14 13:12 102 3 gusting 8 3.9
2019-Dec-14 13:02 103 0 gusting 8 3.9
2019-Dec-14 12:42 117 4 gusting 8 3.9
2019-Dec-14 12:32 124 3 gusting 6 3.9
2019-Dec-14 12:22 122 4 gusting 8 3.9
2019-Dec-14 12:12 088 3 gusting 9 3.9
2019-Dec-14 12:02 092 2 gusting 6 3.9
2019-Dec-14 11:52 121 4 gusting 7 3.9
2019-Dec-14 11:42 116 4 gusting 9 3.9
2019-Dec-14 11:32 071 2 gusting 11 3.9
2019-Dec-14 11:22 154 3 gusting 11 3.9
2019-Dec-14 11:11 098 6 gusting 11 3.9
2019-Dec-14 10:51 109 4 gusting 11 3.9
2019-Dec-14 10:42 143 2 gusting 11 3.9
2019-Dec-14 10:32 149 2 gusting 8 3.3
2019-Dec-14 10:12 121 3 gusting 8 3.3
2019-Dec-14 10:02 127 3 gusting 10 3.3
2019-Dec-14 09:51 107 1 gusting 8 3.3
2019-Dec-14 09:42 123 3 gusting 8 3.3
2019-Dec-14 09:32 123 3 gusting 9 3.3
2019-Dec-14 09:21 077 2 gusting 7 3.3
2019-Dec-14 09:02 069 3 gusting 7 3.3
2019-Dec-14 08:52 110 1 gusting 8 3.3
2019-Dec-14 08:42 101 2 gusting 8 3.3
2019-Dec-14 08:31 104 3 gusting 7 3.3
2019-Dec-14 08:22 158 3 gusting 7 3.3
2019-Dec-14 08:12 142 2 gusting 8 3.3
2019-Dec-14 08:02 066 2 gusting 6 3.3
2019-Dec-14 07:52 063 1 gusting 11 3.3
2019-Dec-14 07:41 144 4 gusting 6 3.3
2019-Dec-14 07:32 127 3 gusting 8 3.3
2019-Dec-14 07:22 106 2 gusting 8 3.3
2019-Dec-14 07:12 101 1 gusting 8 3.3
2019-Dec-14 07:02 115 2 gusting 6 3.3
2019-Dec-14 06:52 130 3 gusting 7 3.3
2019-Dec-14 06:41 087 1 gusting 6 3.9
2019-Dec-14 06:31 105 2 gusting 8 3.9
2019-Dec-14 06:22 157 2 gusting 6 3.9
2019-Dec-14 06:12 117 4 gusting 8 3.9
2019-Dec-14 06:02 103 1 gusting 8 3.9
2019-Dec-14 05:52 097 2 gusting 4 3.9
2019-Dec-14 05:42 101 2 gusting 6 3.9
2019-Dec-14 05:31 130 2 gusting 6 3.9
2019-Dec-14 05:21 115 2 gusting 8 3.9
2019-Dec-14 05:12 105 1 gusting 6 3.9
2019-Dec-14 05:02 089 2 gusting 6 3.9
2019-Dec-14 04:52 143 1 gusting 8 3.9
2019-Dec-14 04:42 105 4 gusting 8 3.9
2019-Dec-14 04:22 092 2 gusting 8 3.9
2019-Dec-14 04:12 080 1 gusting 7 3.9
2019-Dec-14 04:02 076 3 gusting 7 3.9
2019-Dec-14 03:51 069 1 gusting 6 3.9
2019-Dec-14 03:42 090 3 gusting 6 3.9
2019-Dec-14 03:31 098 3 gusting 6 3.9
2019-Dec-14 03:21 093 2 gusting 8 3.9
2019-Dec-14 03:12 093 2 gusting 6 3.9
2019-Dec-14 03:02 089 1 gusting 8 3.9
2019-Dec-14 02:51 111 1 gusting 7 3.9
2019-Dec-14 02:42 105 3 gusting 7 3.9
2019-Dec-14 02:32 092 2 gusting 8 3.9
2019-Dec-14 02:21 103 2 gusting 6 3.9
2019-Dec-14 02:12 107 3 gusting 6 3.9
2019-Dec-14 02:02 050 1 gusting 4 3.9
2019-Dec-14 01:52 081 2 gusting 7 3.9
2019-Dec-14 01:42 092 3 gusting 7 3.9
2019-Dec-14 01:32 086 4 gusting 8 3.9
2019-Dec-14 01:22 082 4 gusting 8 3.9
2019-Dec-14 01:12 066 4 gusting 8 3.9
2019-Dec-14 01:02 118 2 gusting 6 3.9
2019-Dec-14 00:52 067 3 gusting 7 3.9
2019-Dec-14 00:41 125 3 gusting 8 3.9
2019-Dec-14 00:31 111 3 gusting 7 3.9
2019-Dec-14 00:22 100 2 gusting 6 3.9
2019-Dec-14 00:12 095 3 gusting 9 3.9
2019-Dec-14 00:02 075 2 gusting 6 3.9
2019-Dec-13 23:52 095 3 gusting 7 3.9
2019-Dec-13 23:42 073 1 gusting 7 3.9
2019-Dec-13 23:31 086 1 gusting 7 3.9
2019-Dec-13 23:22 059 4 gusting 7 3.9
2019-Dec-13 23:12 071 3 gusting 7 3.9
2019-Dec-13 23:02 105 2 gusting 8 3.9
2019-Dec-13 22:51 111 2 gusting 7 3.9
2019-Dec-13 22:42 076 5 gusting 7 3.9
2019-Dec-13 22:32 114 2 gusting 11 3.9
2019-Dec-13 22:21 081 4 gusting 9 3.9
2019-Dec-13 22:11 071 2 gusting 6 3.9
2019-Dec-13 22:02 033 2 gusting 7 3.9
2019-Dec-13 21:51 054 3 gusting 6 3.9
2019-Dec-13 21:42 091 3 gusting 6 3.3
2019-Dec-13 21:31 096 2 gusting 6 3.3
2019-Dec-13 21:21 094 2 gusting 6 3.3
2019-Dec-13 21:12 087 2 gusting 6 3.3
2019-Dec-13 21:02 076 3 gusting 7 3.3
2019-Dec-13 20:52 096 2 gusting 7 3.3
2019-Dec-13 20:42 060 3 gusting 6 3.3
2019-Dec-13 20:32 078 2 gusting 6 3.3
2019-Dec-13 20:21 090 3 gusting 7 3.3
2019-Dec-13 20:12 088 3 gusting 10 3.3
2019-Dec-13 20:02 049 3 gusting 8 3.3
2019-Dec-13 19:51 059 3 gusting 9 3.3
2019-Dec-13 19:41 071 3 gusting 10 3.3
2019-Dec-13 19:32 068 2 gusting 7 3.9
2019-Dec-13 19:22 048 4 gusting 13 3.9
2019-Dec-13 19:11 067 4 gusting 8 3.9
2019-Dec-13 19:02 071 2 gusting 8 3.9
2019-Dec-13 18:52 128 4 gusting 11 3.9
2019-Dec-13 18:42 086 4 gusting 9 3.9
2019-Dec-13 18:31 092 5 gusting 9 3.9
2019-Dec-13 18:22 052 4 gusting 10 3.9
2019-Dec-13 18:11 063 5 gusting 10 3.9
2019-Dec-13 17:52 094 6 gusting 10 3.9
2019-Dec-13 17:42 082 4 gusting 11 3.9
2019-Dec-13 17:31 093 3 gusting 8 3.9
2019-Dec-13 17:21 075 3 gusting 6 3.9
2019-Dec-13 17:12 061 3 gusting 6 3.9
2019-Dec-13 17:02 087 2 gusting 6 3.9
2019-Dec-13 16:51 078 2 gusting 7 3.9
2019-Dec-13 16:42 062 3 gusting 7 3.9
2019-Dec-13 16:32 053 2 gusting 9 3.9
2019-Dec-13 16:21 067 4 gusting 8 3.9
2019-Dec-13 16:12 101 3 gusting 9 3.9
2019-Dec-13 16:01 067 3 gusting 7 3.9
2019-Dec-13 15:52 080 3 gusting 6 3.9
2019-Dec-13 15:42 072 3 gusting 9 3.9
2019-Dec-13 15:31 094 4 gusting 10 3.9
2019-Dec-13 15:22 088 2 gusting 8 3.9
2019-Dec-13 15:12 077 4 gusting 9 3.9
2019-Dec-13 15:01 102 4 gusting 9 3.9
2019-Dec-13 14:51 123 4 gusting 8 3.9
2019-Dec-13 14:42 078 3 gusting 8 3.9
2019-Dec-13 14:32 105 2 gusting 7 3.9
2019-Dec-13 14:22 055 4 gusting 8 3.9
2019-Dec-13 14:12 105 4 gusting 12 3.9
2019-Dec-13 14:02 075 4 gusting 11 3.9
2019-Dec-13 13:51 088 4 gusting 10 3.9
2019-Dec-13 13:42 088 3 gusting 9 3.9
2019-Dec-13 13:32 107 3 gusting 9 3.9
2019-Dec-13 13:22 067 3 gusting 8 3.9
2019-Dec-13 13:11 096 5 gusting 11 3.9
2019-Dec-13 13:01 093 3 gusting 8 3.9